createdAt,value
2022-09-22T00:04:28.705Z,2.10
2022-09-22T00:09:31.516Z,2.17
2022-09-22T00:14:34.523Z,2.27
2022-09-22T00:19:38.208Z,2.40
2022-09-22T00:24:43.419Z,1.90
2022-09-22T00:29:47.198Z,2.10
2022-09-22T00:34:50.442Z,2.47
2022-09-22T00:39:53.942Z,4.03
2022-09-22T00:44:56.879Z,2.07
2022-09-22T00:50:19.022Z,2.07
2022-09-22T00:55:43.862Z,2.00
2022-09-22T01:00:46.929Z,2.20
2022-09-22T01:05:54.860Z,2.20
2022-09-22T01:10:59.609Z,1.93
2022-09-22T01:16:21.801Z,2.03
2022-09-22T01:21:48.286Z,2.00
2022-09-22T01:27:06.228Z,1.40
2022-09-22T01:32:42.872Z,3.07
2022-09-22T01:38:13.129Z,2.40
2022-09-22T01:43:40.752Z,2.00
2022-09-22T01:48:50.941Z,2.00
2022-09-22T01:54:01.323Z,3.45
2022-09-22T01:59:07.407Z,2.50
2022-09-22T02:04:26.523Z,1.63
2022-09-22T02:09:32.974Z,1.90
2022-09-22T02:14:35.996Z,2.97
2022-09-22T02:19:41.135Z,2.23
2022-09-22T02:24:46.564Z,3.23
2022-09-22T02:30:08.243Z,2.00
2022-09-22T02:35:11.346Z,1.98
2022-09-22T02:40:43.081Z,2.77
2022-09-22T02:46:20.425Z,2.28
2022-09-22T02:51:23.617Z,1.80
2022-09-22T02:56:26.401Z,1.93
2022-09-22T03:01:29.148Z,2.23
2022-09-22T03:06:32.541Z,2.77
2022-09-22T03:11:35.538Z,2.10
2022-09-22T03:16:38.428Z,2.50
2022-09-22T03:21:41.192Z,1.93
2022-09-22T03:26:43.891Z,1.83
2022-09-22T03:31:46.815Z,2.30
2022-09-22T03:36:50.128Z,2.63
2022-09-22T03:41:52.876Z,2.10
2022-09-22T03:46:55.855Z,2.60
2022-09-22T03:51:58.648Z,2.53
2022-09-22T03:57:04.251Z,3.00
2022-09-22T04:02:07.724Z,2.63
2022-09-22T04:07:10.628Z,1.43
2022-09-22T04:12:13.430Z,1.83
2022-09-22T04:17:16.244Z,2.23
2022-09-22T04:22:19.155Z,2.90
2022-09-22T04:27:21.973Z,3.10
2022-09-22T04:32:24.893Z,3.03
2022-09-22T04:37:27.803Z,2.43
2022-09-22T04:42:30.776Z,2.67
2022-09-22T04:47:34.075Z,2.40
2022-09-22T04:52:37.101Z,2.60
2022-09-22T04:57:40.059Z,3.33
2022-09-22T05:02:43.056Z,4.43
2022-09-22T05:07:49.075Z,5.40
2022-09-22T05:12:55.832Z,4.87
2022-09-22T05:17:59.453Z,4.57
2022-09-22T05:23:02.366Z,3.60
2022-09-22T05:28:05.284Z,4.17
2022-09-22T05:33:08.394Z,6.43
2022-09-22T05:38:11.234Z,6.17
2022-09-22T05:43:15.002Z,5.70
2022-09-22T05:48:17.807Z,7.07
2022-09-22T05:53:20.829Z,5.57
2022-09-22T05:58:24.551Z,7.07
2022-09-22T06:03:27.361Z,6.40
2022-09-22T06:08:30.993Z,5.07
2022-09-22T06:13:33.888Z,6.63
2022-09-22T06:18:36.853Z,12.07
2022-09-22T06:23:42.950Z,5.73
2022-09-22T06:28:47.219Z,5.90
2022-09-22T06:33:50.490Z,6.60
2022-09-22T06:38:56.248Z,6.47
2022-09-22T06:43:59.474Z,4.80
2022-09-22T06:49:02.855Z,6.13
2022-09-22T06:54:06.848Z,6.17
2022-09-22T06:59:13.060Z,5.67
2022-09-22T07:04:17.747Z,4.07
2022-09-22T07:09:21.265Z,5.90
2022-09-22T07:14:25.491Z,8.43
2022-09-22T07:19:28.376Z,3.43
2022-09-22T07:24:31.150Z,4.33
2022-09-22T07:29:33.971Z,4.67
2022-09-22T07:34:36.745Z,3.70
2022-09-22T07:39:39.513Z,3.90
2022-09-22T07:45:01.105Z,3.03
2022-09-22T07:50:04.824Z,3.03
2022-09-22T07:55:08.342Z,2.87
2022-09-22T08:00:12.782Z,3.70
2022-09-22T08:05:16.615Z,3.30
2022-09-22T08:10:20.205Z,3.33
2022-09-22T08:15:27.095Z,2.27
2022-09-22T08:20:30.425Z,1.73
2022-09-22T08:25:33.150Z,1.60
2022-09-22T08:30:36.436Z,2.35
2022-09-22T08:35:51.134Z,2.75
2022-09-22T08:41:31.716Z,1.85
2022-09-22T08:46:38.453Z,2.47
2022-09-22T08:51:52.289Z,1.92
2022-09-22T08:57:00.859Z,1.38
2022-09-22T09:02:34.843Z,1.73
2022-09-22T09:07:46.733Z,3.53
2022-09-22T09:13:30.700Z,2.05
2022-09-22T09:18:39.439Z,1.40
2022-09-22T09:29:22.160Z,1.25
2022-09-22T09:34:29.098Z,1.10
2022-09-22T09:39:41.874Z,1.30
2022-09-22T09:44:45.669Z,0.80
2022-09-22T09:49:52.727Z,1.10
2022-09-22T09:54:55.920Z,1.25
2022-09-22T10:00:33.949Z,1.15
2022-09-22T10:05:37.658Z,1.15
2022-09-22T10:10:42.250Z,1.08
2022-09-22T10:16:20.255Z,1.10
2022-09-22T10:21:24.870Z,1.23
2022-09-22T10:26:33.550Z,0.75
2022-09-22T10:31:37.949Z,0.80
2022-09-22T10:36:45.793Z,0.73
2022-09-22T10:41:49.269Z,0.93
2022-09-22T10:47:14.103Z,0.85
2022-09-22T10:52:19.590Z,0.70
2022-09-22T10:58:02.613Z,0.55
2022-09-22T11:03:47.403Z,1.00
2022-09-22T11:09:25.827Z,0.85
2022-09-22T11:14:45.816Z,0.80
2022-09-22T11:20:09.997Z,0.50
2022-09-22T11:26:14.154Z,0.63
2022-09-22T11:32:05.557Z,0.65
2022-09-22T11:42:47.758Z,0.57
2022-09-22T11:48:21.503Z,0.60
2022-09-22T11:53:46.007Z,1.00
2022-09-22T11:58:52.821Z,1.05
2022-09-22T12:04:35.818Z,0.47
2022-09-22T12:09:52.015Z,1.92
2022-09-22T12:15:20.558Z,1.58
2022-09-22T12:20:53.651Z,1.73
